createdAt,value
2023-05-09T00:02:22.313Z,99.92
2023-05-09T00:04:50.213Z,99.99
2023-05-09T00:07:18.268Z,100.00
2023-05-09T00:09:47.362Z,99.66
2023-05-09T00:12:15.036Z,100.00
2023-05-09T00:14:45.416Z,99.70
2023-05-09T00:17:14.556Z,99.89
2023-05-09T00:19:43.593Z,99.52
2023-05-09T00:22:12.860Z,99.59
2023-05-09T00:24:40.532Z,100.00
2023-05-09T00:27:09.851Z,100.00
2023-05-09T00:29:37.711Z,99.25
2023-05-09T00:32:06.318Z,99.61
2023-05-09T00:34:34.035Z,99.97
2023-05-09T00:37:01.647Z,99.52
2023-05-09T00:39:29.491Z,99.39
2023-05-09T00:41:57.694Z,99.68
2023-05-09T00:44:26.911Z,99.53
2023-05-09T00:46:54.589Z,99.51
2023-05-09T00:49:22.432Z,99.88
2023-05-09T00:51:50.409Z,99.77
2023-05-09T00:54:18.005Z,100.00
2023-05-09T00:56:46.266Z,99.83
2023-05-09T00:59:15.253Z,99.52
2023-05-09T01:01:45.836Z,99.45
2023-05-09T01:04:15.294Z,99.66
2023-05-09T01:06:49.772Z,99.58
2023-05-09T01:09:23.934Z,100.00
2023-05-09T01:12:05.308Z,99.88
2023-05-09T01:14:41.639Z,99.96
2023-05-09T01:17:17.083Z,100.00
2023-05-09T01:20:11.271Z,100.00
2023-05-09T01:22:46.205Z,100.00
2023-05-09T01:25:35.084Z,100.00
2023-05-09T01:28:13.582Z,100.00
2023-05-09T01:30:45.574Z,100.00
2023-05-09T01:33:17.403Z,100.00
2023-05-09T01:35:50.799Z,100.00
2023-05-09T01:38:23.014Z,100.00
2023-05-09T01:40:55.161Z,100.00
2023-05-09T01:43:24.630Z,100.00
2023-05-09T01:45:54.812Z,100.00
2023-05-09T01:48:26.269Z,100.00
2023-05-09T01:50:55.392Z,100.00
2023-05-09T01:53:24.400Z,100.00
2023-05-09T01:55:52.784Z,100.00
2023-05-09T01:58:22.671Z,100.00
2023-05-09T02:00:53.407Z,100.00
2023-05-09T02:03:22.335Z,100.00
2023-05-09T02:05:51.698Z,100.00
2023-05-09T02:08:22.230Z,100.00
2023-05-09T02:10:50.520Z,100.00
2023-05-09T02:13:18.434Z,100.00
2023-05-09T02:15:46.491Z,100.00
2023-05-09T02:18:16.888Z,99.93
2023-05-09T02:20:46.329Z,99.78
2023-05-09T02:23:14.465Z,99.73
2023-05-09T02:25:42.343Z,100.00
2023-05-09T02:28:11.387Z,100.00
2023-05-09T02:30:43.223Z,100.00
2023-05-09T02:33:13.637Z,100.00
2023-05-09T02:35:45.413Z,100.00
2023-05-09T02:38:13.948Z,100.00
2023-05-09T02:40:44.241Z,100.00
2023-05-09T02:43:12.384Z,100.00
2023-05-09T02:45:40.280Z,100.00
2023-05-09T02:48:09.163Z,100.00
2023-05-09T02:50:38.340Z,100.00
2023-05-09T02:53:07.842Z,100.00
2023-05-09T02:55:35.750Z,100.00
2023-05-09T02:58:13.336Z,100.00
2023-05-09T03:00:42.234Z,100.00
2023-05-09T03:03:10.812Z,100.00
2023-05-09T03:05:38.724Z,100.00
2023-05-09T03:08:07.878Z,100.00
2023-05-09T03:10:35.557Z,100.00
2023-05-09T03:13:03.435Z,100.00
2023-05-09T03:15:31.201Z,100.00
2023-05-09T03:17:59.199Z,100.00
2023-05-09T03:20:27.814Z,100.00
2023-05-09T03:22:55.437Z,100.00
2023-05-09T03:25:26.183Z,100.00
2023-05-09T03:27:53.835Z,100.00
2023-05-09T03:30:22.361Z,100.00
2023-05-09T03:32:50.148Z,100.00
2023-05-09T03:35:17.920Z,100.00
2023-05-09T03:37:45.667Z,100.00
2023-05-09T03:40:13.758Z,100.00
2023-05-09T03:42:42.763Z,100.00
2023-05-09T03:45:11.447Z,100.00
2023-05-09T03:47:39.174Z,100.00
2023-05-09T03:50:08.433Z,100.00
2023-05-09T03:52:37.224Z,100.00
2023-05-09T03:55:05.851Z,100.00
2023-05-09T03:57:36.106Z,100.00
2023-05-09T04:00:06.833Z,100.00
2023-05-09T04:02:34.705Z,100.00
2023-05-09T04:05:03.279Z,99.72
2023-05-09T04:07:30.991Z,100.00
2023-05-09T04:09:58.850Z,100.00
2023-05-09T04:12:26.565Z,99.82
2023-05-09T04:14:54.309Z,99.34
2023-05-09T04:17:23.409Z,99.03
2023-05-09T04:19:51.177Z,99.37
2023-05-09T04:22:18.823Z,99.59
2023-05-09T04:24:46.505Z,99.54
2023-05-09T04:27:14.210Z,99.48
2023-05-09T04:29:41.873Z,99.41
2023-05-09T04:32:09.961Z,99.17
2023-05-09T04:34:39.038Z,99.25
2023-05-09T04:37:06.813Z,99.61
2023-05-09T04:39:34.453Z,98.81
2023-05-09T04:42:02.699Z,98.76
2023-05-09T04:44:30.460Z,98.63
2023-05-09T04:46:58.920Z,98.77
2023-05-09T04:49:26.653Z,98.96
2023-05-09T04:51:55.629Z,98.76
2023-05-09T04:54:23.224Z,98.52
2023-05-09T04:56:50.949Z,98.16
2023-05-09T04:59:18.661Z,98.06
2023-05-09T05:01:46.709Z,98.49
2023-05-09T05:04:14.868Z,97.91
2023-05-09T05:06:42.477Z,98.02
2023-05-09T05:09:11.576Z,97.79
2023-05-09T05:14:07.155Z,97.36
2023-05-09T05:16:35.142Z,97.22
2023-05-09T05:19:02.862Z,96.70
2023-05-09T05:21:30.834Z,96.16
2023-05-09T05:23:58.533Z,95.54
2023-05-09T05:26:29.005Z,95.12
2023-05-09T05:28:57.141Z,95.07
2023-05-09T05:31:24.976Z,94.43
2023-05-09T05:33:52.991Z,94.29
2023-05-09T05:36:20.833Z,94.00
2023-05-09T05:38:48.566Z,93.02
2023-05-09T05:41:16.185Z,92.65
2023-05-09T05:43:45.196Z,92.94
2023-05-09T05:46:12.949Z,92.86
2023-05-09T05:48:40.671Z,92.58
2023-05-09T05:51:08.597Z,92.45
2023-05-09T05:53:36.298Z,92.42
2023-05-09T05:56:04.135Z,91.84
2023-05-09T05:58:31.812Z,91.59
2023-05-09T06:01:01.056Z,90.29
2023-05-09T06:03:29.094Z,89.59
2023-05-09T06:05:57.004Z,89.37
2023-05-09T06:08:24.799Z,87.78
2023-05-09T06:10:52.441Z,87.67
2023-05-09T06:13:20.180Z,85.93
2023-05-09T06:15:47.934Z,85.48
2023-05-09T06:18:17.247Z,85.61
2023-05-09T06:20:44.901Z,84.97
2023-05-09T06:23:12.669Z,84.09
2023-05-09T06:25:40.485Z,81.38
2023-05-09T06:28:08.345Z,82.30
2023-05-09T06:30:36.154Z,81.28
2023-05-09T06:33:04.423Z,82.25
2023-05-09T06:35:34.054Z,80.96
2023-05-09T06:38:01.685Z,80.50
2023-05-09T06:40:30.327Z,80.41
2023-05-09T06:42:58.045Z,81.22
2023-05-09T06:45:26.457Z,81.37
2023-05-09T06:47:54.229Z,81.74
2023-05-09T06:50:22.052Z,81.51
2023-05-09T06:52:51.216Z,80.12
2023-05-09T06:55:18.961Z,80.72
2023-05-09T06:57:46.847Z,80.41
2023-05-09T07:00:16.358Z,81.18
2023-05-09T07:02:44.130Z,81.08
2023-05-09T07:05:11.954Z,79.46
2023-05-09T07:07:40.665Z,79.68
2023-05-09T07:10:12.700Z,79.65
2023-05-09T07:12:41.708Z,79.24
2023-05-09T07:15:11.110Z,78.21
2023-05-09T07:17:39.018Z,79.40
2023-05-09T07:20:08.086Z,80.04
2023-05-09T07:22:37.288Z,81.64
2023-05-09T07:25:07.324Z,81.89
2023-05-09T07:27:36.871Z,82.30
2023-05-09T07:30:05.391Z,82.01
2023-05-09T07:32:33.296Z,82.09
2023-05-09T07:35:01.028Z,81.54
2023-05-09T07:37:28.780Z,81.29
2023-05-09T07:39:56.787Z,80.94
2023-05-09T07:42:24.728Z,80.26
2023-05-09T07:44:54.088Z,80.57
2023-05-09T07:47:21.991Z,82.11
2023-05-09T07:49:49.809Z,81.41
2023-05-09T07:52:17.979Z,80.52
2023-05-09T07:54:46.059Z,80.65
2023-05-09T07:57:14.038Z,80.08
2023-05-09T07:59:42.429Z,79.44
2023-05-09T08:02:11.583Z,79.10
2023-05-09T08:04:41.349Z,79.66
2023-05-09T08:07:09.771Z,79.36
2023-05-09T08:09:37.514Z,78.24
2023-05-09T08:12:06.002Z,77.73
2023-05-09T08:14:34.691Z,76.21
2023-05-09T08:17:02.329Z,76.63
2023-05-09T08:19:31.790Z,76.68
2023-05-09T08:22:00.553Z,77.57
2023-05-09T08:24:28.272Z,77.28
2023-05-09T08:26:56.215Z,78.94
2023-05-09T08:29:23.834Z,77.46
2023-05-09T08:31:51.922Z,76.75
2023-05-09T08:34:19.868Z,76.67
2023-05-09T08:36:48.983Z,77.72
2023-05-09T08:39:16.917Z,76.84
2023-05-09T08:41:45.077Z,75.75
2023-05-09T08:44:14.435Z,75.33
2023-05-09T08:46:45.401Z,74.02
2023-05-09T08:49:13.384Z,73.74
2023-05-09T08:51:41.974Z,73.97
2023-05-09T08:54:12.246Z,74.24
2023-05-09T08:56:42.076Z,72.32
2023-05-09T08:59:10.501Z,72.46
2023-05-09T09:01:38.780Z,73.57
2023-05-09T09:04:08.281Z,73.31
2023-05-09T09:06:36.845Z,74.72
2023-05-09T09:09:07.282Z,73.75
2023-05-09T09:11:36.857Z,75.07
2023-05-09T09:14:10.147Z,74.63
2023-05-09T09:16:38.287Z,73.39
2023-05-09T09:19:12.687Z,71.61
2023-05-09T09:21:43.754Z,70.58
2023-05-09T09:24:14.112Z,69.40
2023-05-09T09:26:48.900Z,67.94
2023-05-09T09:29:17.927Z,68.20
2023-05-09T09:31:49.400Z,68.00
2023-05-09T09:34:22.302Z,67.76
2023-05-09T09:36:50.617Z,68.03
2023-05-09T09:39:18.743Z,67.24
2023-05-09T09:41:47.891Z,66.44
2023-05-09T09:44:17.255Z,64.20
2023-05-09T09:46:46.494Z,64.44
2023-05-09T09:49:15.475Z,64.59
2023-05-09T09:51:44.215Z,63.66
2023-05-09T09:54:13.417Z,63.45
2023-05-09T09:56:42.808Z,63.38
2023-05-09T09:59:14.517Z,62.47
2023-05-09T10:01:56.943Z,63.40
2023-05-09T10:04:25.746Z,62.41
2023-05-09T10:06:55.008Z,60.08
2023-05-09T10:09:23.757Z,58.97
2023-05-09T10:11:54.124Z,59.07
2023-05-09T10:14:25.122Z,59.59
2023-05-09T10:16:57.496Z,58.76
2023-05-09T10:19:29.806Z,60.66
2023-05-09T10:21:59.101Z,60.35
2023-05-09T10:27:04.119Z,61.70
2023-05-09T10:29:36.681Z,63.01
2023-05-09T10:32:12.810Z,64.36
2023-05-09T10:34:43.469Z,64.14
2023-05-09T10:37:11.602Z,62.37
2023-05-09T10:39:40.916Z,62.98
2023-05-09T10:42:09.805Z,63.14
2023-05-09T10:44:40.267Z,65.60
2023-05-09T10:47:08.830Z,66.19
2023-05-09T10:49:37.519Z,68.39
2023-05-09T10:52:05.680Z,69.12
2023-05-09T10:54:33.620Z,70.43
2023-05-09T10:57:01.979Z,71.10
2023-05-09T10:59:40.076Z,72.71
2023-05-09T11:02:14.260Z,74.77
2023-05-09T11:04:44.133Z,74.07
2023-05-09T11:07:25.536Z,73.33
2023-05-09T11:09:53.991Z,71.05
2023-05-09T11:12:22.347Z,69.80
2023-05-09T11:14:53.977Z,72.58
2023-05-09T11:17:32.254Z,72.64
2023-05-09T11:20:02.280Z,73.66
2023-05-09T11:22:32.840Z,74.47
2023-05-09T11:25:04.855Z,77.66
2023-05-09T11:27:40.414Z,73.36
2023-05-09T11:30:11.668Z,72.62
2023-05-09T11:32:44.667Z,71.53
2023-05-09T11:35:14.876Z,71.55
2023-05-09T11:37:52.397Z,71.22
2023-05-09T11:40:21.868Z,71.00
2023-05-09T11:42:51.013Z,72.42
2023-05-09T11:45:20.560Z,72.58
2023-05-09T11:47:49.663Z,72.02
2023-05-09T11:50:19.243Z,71.92
2023-05-09T11:52:48.190Z,70.66
2023-05-09T11:55:17.716Z,69.89
2023-05-09T11:57:47.132Z,71.42
2023-05-09T12:00:17.203Z,71.08
2023-05-09T12:02:47.024Z,70.08
2023-05-09T12:05:16.598Z,68.54
2023-05-09T12:07:44.801Z,68.23
2023-05-09T12:10:15.739Z,68.99
2023-05-09T12:12:45.093Z,64.62
2023-05-09T12:15:14.300Z,62.07
2023-05-09T12:17:43.695Z,60.96
2023-05-09T12:20:14.010Z,60.01
2023-05-09T12:22:44.270Z,59.30
2023-05-09T12:25:15.204Z,59.45
2023-05-09T12:27:43.103Z,60.05
2023-05-09T12:30:13.848Z,59.99
2023-05-09T12:32:42.873Z,59.00
2023-05-09T12:35:12.205Z,60.85
2023-05-09T12:37:40.310Z,62.19
2023-05-09T12:40:15.419Z,62.04
2023-05-09T12:42:46.942Z,61.67
2023-05-09T12:45:15.798Z,61.86
2023-05-09T12:47:45.385Z,61.52
2023-05-09T12:50:14.873Z,62.45
2023-05-09T12:52:54.503Z,62.94
2023-05-09T12:55:29.755Z,62.97
2023-05-09T12:58:01.968Z,61.90
2023-05-09T13:00:30.205Z,62.26
2023-05-09T13:02:58.084Z,61.47
2023-05-09T13:05:27.124Z,61.00
2023-05-09T13:07:58.274Z,61.21
2023-05-09T13:10:28.503Z,60.82
2023-05-09T13:12:56.608Z,60.34
2023-05-09T13:15:26.766Z,58.21
2023-05-09T13:17:55.185Z,58.15
2023-05-09T13:20:22.941Z,57.53
2023-05-09T13:22:52.044Z,58.47
2023-05-09T13:25:20.358Z,59.82
2023-05-09T13:27:47.985Z,60.01
2023-05-09T13:30:16.684Z,58.46
2023-05-09T13:32:44.508Z,59.55
2023-05-09T13:35:12.449Z,59.13
2023-05-09T13:37:40.217Z,59.22
2023-05-09T13:40:11.125Z,59.33
2023-05-09T13:42:40.203Z,59.90
2023-05-09T13:45:09.336Z,60.45
2023-05-09T13:47:38.770Z,61.10
2023-05-09T13:50:08.307Z,60.57
2023-05-09T13:52:35.947Z,60.79
2023-05-09T13:55:03.840Z,61.84
2023-05-09T13:57:33.032Z,62.31
2023-05-09T14:00:00.627Z,64.70
2023-05-09T14:02:28.334Z,62.28
2023-05-09T14:04:56.369Z,62.00
2023-05-09T14:07:24.132Z,61.53
2023-05-09T14:09:58.789Z,60.90
2023-05-09T14:12:39.450Z,60.96
2023-05-09T14:15:08.608Z,60.86
2023-05-09T14:17:36.867Z,62.11
2023-05-09T14:20:05.314Z,61.14
2023-05-09T14:22:33.318Z,61.44
2023-05-09T14:25:01.237Z,61.32
2023-05-09T14:27:29.012Z,61.67
2023-05-09T14:29:58.338Z,61.10
2023-05-09T14:32:26.436Z,61.08
2023-05-09T14:34:54.118Z,61.30
2023-05-09T14:37:22.155Z,61.19
2023-05-09T14:39:50.089Z,61.79
2023-05-09T14:42:18.276Z,60.23
2023-05-09T14:44:47.429Z,60.91
2023-05-09T14:47:16.934Z,61.14
2023-05-09T14:49:44.847Z,61.13
2023-05-09T14:52:13.778Z,61.79
2023-05-09T14:54:41.928Z,61.85
2023-05-09T14:57:09.618Z,61.65
2023-05-09T14:59:37.505Z,62.98
2023-05-09T15:02:05.426Z,64.11
2023-05-09T15:04:34.712Z,63.85
2023-05-09T15:07:02.719Z,62.73
2023-05-09T15:09:30.489Z,63.10
2023-05-09T15:11:58.479Z,62.88
2023-05-09T15:14:26.151Z,64.89
2023-05-09T15:16:54.826Z,65.21
2023-05-09T15:19:23.165Z,64.51
2023-05-09T15:21:52.410Z,63.76
2023-05-09T15:24:20.095Z,63.86
2023-05-09T15:26:47.998Z,62.95
2023-05-09T15:29:15.609Z,65.41
2023-05-09T15:31:43.926Z,64.74
2023-05-09T15:34:12.073Z,63.97
2023-05-09T15:36:39.762Z,63.31
2023-05-09T15:39:08.941Z,63.86
2023-05-09T15:41:36.744Z,63.28
2023-05-09T15:44:04.811Z,63.65
2023-05-09T15:46:33.132Z,63.76
2023-05-09T15:49:01.393Z,64.25
2023-05-09T15:51:30.977Z,64.88
2023-05-09T15:53:58.718Z,64.30
2023-05-09T15:56:27.862Z,63.89
2023-05-09T15:58:55.945Z,63.56
2023-05-09T16:01:23.753Z,62.69
2023-05-09T16:03:52.053Z,62.82
2023-05-09T16:06:20.146Z,61.83
2023-05-09T16:08:47.936Z,62.26
2023-05-09T16:11:16.012Z,62.88
2023-05-09T16:13:46.711Z,62.36
2023-05-09T16:16:14.555Z,63.93
2023-05-09T16:18:42.503Z,63.77
2023-05-09T16:21:10.213Z,63.15
2023-05-09T16:23:39.502Z,62.94
2023-05-09T16:26:07.260Z,63.00
2023-05-09T16:28:35.203Z,62.86
2023-05-09T16:31:05.627Z,63.64
2023-05-09T16:33:33.324Z,64.19
2023-05-09T16:36:01.517Z,64.83
2023-05-09T16:38:29.961Z,65.36
2023-05-09T16:40:57.826Z,66.55
2023-05-09T16:43:25.695Z,67.88
2023-05-09T16:45:53.750Z,68.86
2023-05-09T16:48:22.897Z,69.76
2023-05-09T16:50:53.638Z,70.55
2023-05-09T16:53:22.795Z,72.01
2023-05-09T16:55:50.949Z,73.03
2023-05-09T16:58:18.966Z,73.43
2023-05-09T17:00:46.955Z,74.30
2023-05-09T17:03:15.139Z,74.79
2023-05-09T17:05:44.444Z,74.08
2023-05-09T17:08:12.413Z,74.35
2023-05-09T17:10:42.065Z,74.44
2023-05-09T17:13:10.310Z,74.98
2023-05-09T17:15:38.485Z,76.20
2023-05-09T17:18:07.014Z,76.97
2023-05-09T17:20:35.579Z,77.56
2023-05-09T17:23:04.663Z,79.45
2023-05-09T17:25:33.448Z,80.27
2023-05-09T17:28:01.285Z,80.63
2023-05-09T17:30:29.252Z,81.71
2023-05-09T17:32:57.001Z,83.24
2023-05-09T17:35:25.963Z,84.18
2023-05-09T17:37:56.310Z,84.82
2023-05-09T17:40:25.698Z,86.02
2023-05-09T17:42:53.322Z,86.37
2023-05-09T17:45:22.188Z,86.64
2023-05-09T17:47:50.949Z,87.33
2023-05-09T17:50:20.319Z,86.65
2023-05-09T17:52:50.231Z,86.42
2023-05-09T17:55:18.380Z,87.37
2023-05-09T17:57:47.504Z,87.73
2023-05-09T18:00:16.549Z,86.27
2023-05-09T18:02:45.288Z,86.64
2023-05-09T18:05:13.584Z,87.15
2023-05-09T18:07:41.306Z,85.98
2023-05-09T18:10:10.910Z,86.80
2023-05-09T18:12:38.633Z,88.58
2023-05-09T18:15:10.360Z,87.18
2023-05-09T18:17:38.855Z,86.23
2023-05-09T18:20:08.899Z,86.54
2023-05-09T18:22:37.364Z,87.18
2023-05-09T18:25:05.952Z,88.17
2023-05-09T18:27:33.725Z,88.07
2023-05-09T18:30:01.583Z,87.67
2023-05-09T18:32:31.526Z,88.61
2023-05-09T18:34:59.762Z,88.32
2023-05-09T18:37:27.959Z,87.54
2023-05-09T18:39:55.954Z,87.98
2023-05-09T18:42:23.724Z,89.37
2023-05-09T18:44:51.774Z,87.21
2023-05-09T18:47:19.741Z,87.98
2023-05-09T18:49:49.383Z,86.70
2023-05-09T18:52:18.905Z,86.26
2023-05-09T18:54:46.822Z,85.66
2023-05-09T18:57:14.817Z,86.12
2023-05-09T18:59:42.680Z,85.69
2023-05-09T19:02:10.662Z,86.47
2023-05-09T19:04:38.600Z,86.00
2023-05-09T19:07:09.977Z,86.17
2023-05-09T19:09:38.298Z,86.24
2023-05-09T19:12:06.835Z,86.94
2023-05-09T19:14:34.921Z,87.30
2023-05-09T19:17:04.335Z,87.75
2023-05-09T19:19:32.313Z,87.19
2023-05-09T19:22:00.917Z,87.46
2023-05-09T19:24:30.093Z,87.12
2023-05-09T19:26:57.884Z,86.98
2023-05-09T19:29:26.072Z,86.71
2023-05-09T19:31:53.928Z,87.02
2023-05-09T19:34:22.004Z,87.43
2023-05-09T19:36:49.974Z,87.95
2023-05-09T19:39:18.295Z,86.99
2023-05-09T19:41:47.520Z,86.70
2023-05-09T19:44:15.342Z,86.09
2023-05-09T19:46:46.403Z,86.38
2023-05-09T19:49:17.179Z,86.24
2023-05-09T19:51:45.701Z,86.37
2023-05-09T19:54:14.173Z,85.95
2023-05-09T19:56:42.066Z,85.83
2023-05-09T19:59:11.278Z,85.62
2023-05-09T20:01:39.028Z,85.07
2023-05-09T20:04:07.859Z,86.40
2023-05-09T20:06:36.153Z,85.92
2023-05-09T20:09:04.695Z,84.40
2023-05-09T20:11:32.622Z,84.23
2023-05-09T20:14:00.815Z,85.63
2023-05-09T20:16:30.007Z,84.78
2023-05-09T20:18:58.514Z,84.50
2023-05-09T20:21:27.146Z,85.90
2023-05-09T20:23:54.905Z,84.43
2023-05-09T20:26:25.102Z,85.66
2023-05-09T20:28:54.439Z,86.95
2023-05-09T20:31:22.209Z,85.88
2023-05-09T20:33:54.547Z,85.48
2023-05-09T20:36:22.357Z,84.73
2023-05-09T20:38:50.817Z,84.77
2023-05-09T20:41:18.790Z,83.90
2023-05-09T20:43:47.113Z,85.21
2023-05-09T20:46:15.184Z,85.30
2023-05-09T20:48:43.005Z,86.42
2023-05-09T20:51:12.123Z,84.65
2023-05-09T20:53:39.806Z,83.47
2023-05-09T20:56:07.596Z,84.35
2023-05-09T20:58:35.638Z,85.37
2023-05-09T21:01:03.711Z,85.57
2023-05-09T21:03:31.815Z,87.29
2023-05-09T21:06:00.276Z,87.65
2023-05-09T21:08:29.425Z,84.52
2023-05-09T21:10:57.258Z,85.36
2023-05-09T21:13:25.194Z,87.42
2023-05-09T21:15:53.104Z,86.56
2023-05-09T21:18:21.621Z,87.20
2023-05-09T21:20:49.385Z,86.32
2023-05-09T21:23:18.651Z,88.27
2023-05-09T21:25:48.072Z,88.26
2023-05-09T21:28:15.875Z,89.10
2023-05-09T21:30:43.871Z,87.84
2023-05-09T21:33:11.991Z,87.56
2023-05-09T21:35:40.034Z,87.59
2023-05-09T21:38:07.784Z,88.16
2023-05-09T21:40:35.751Z,88.63
2023-05-09T21:43:04.942Z,87.58
2023-05-09T21:45:33.533Z,88.30
2023-05-09T21:48:02.498Z,89.13
2023-05-09T21:50:30.667Z,89.29
2023-05-09T21:52:58.771Z,90.24
2023-05-09T21:55:26.800Z,89.96
2023-05-09T21:57:54.610Z,90.02
2023-05-09T22:00:23.803Z,90.60
2023-05-09T22:02:51.582Z,90.95
2023-05-09T22:05:20.080Z,90.69
2023-05-09T22:07:48.057Z,90.89
2023-05-09T22:10:16.157Z,91.22
2023-05-09T22:12:44.573Z,91.24
2023-05-09T22:15:12.829Z,90.63
2023-05-09T22:17:44.357Z,91.47
2023-05-09T22:20:13.606Z,91.57
2023-05-09T22:22:41.610Z,91.55
2023-05-09T22:25:09.998Z,91.45
2023-05-09T22:27:37.751Z,91.49
2023-05-09T22:30:06.609Z,91.54
2023-05-09T22:32:34.375Z,90.90
2023-05-09T22:35:03.757Z,91.15
2023-05-09T22:37:31.613Z,91.05
2023-05-09T22:40:01.263Z,90.44
2023-05-09T22:42:29.692Z,90.14
2023-05-09T22:44:58.181Z,89.87
2023-05-09T22:47:26.019Z,89.79
2023-05-09T22:49:54.228Z,89.85
2023-05-09T22:52:23.277Z,89.71
2023-05-09T22:54:51.010Z,89.77
2023-05-09T22:57:20.450Z,89.86
2023-05-09T22:59:48.136Z,89.41
2023-05-09T23:02:15.891Z,90.40
2023-05-09T23:04:43.599Z,90.02
2023-05-09T23:07:11.699Z,89.83
2023-05-09T23:09:41.068Z,89.49
2023-05-09T23:12:10.554Z,89.83
2023-05-09T23:14:38.327Z,90.00
2023-05-09T23:17:06.207Z,90.12
2023-05-09T23:19:33.907Z,89.75
2023-05-09T23:22:02.130Z,89.51
2023-05-09T23:24:29.893Z,89.44
2023-05-09T23:26:59.065Z,88.82
2023-05-09T23:29:26.855Z,89.18
2023-05-09T23:31:54.726Z,89.19
2023-05-09T23:34:22.443Z,88.85
2023-05-09T23:36:50.379Z,88.96
2023-05-09T23:39:18.338Z,89.87
2023-05-09T23:41:46.106Z,89.72
2023-05-09T23:44:15.541Z,89.29
2023-05-09T23:46:43.555Z,89.64
2023-05-09T23:49:13.153Z,89.45
2023-05-09T23:51:40.992Z,89.86
2023-05-09T23:54:09.067Z,89.77
2023-05-09T23:56:37.042Z,89.81
2023-05-09T23:59:04.812Z,90.42
